sensor_id;sensor_type;location;lat;lon;timestamp;P1;durP1;ratioP1;P2;durP2;ratioP2
11042;SDS011;5574;48.786;10.120;2022-12-07T00:01:50;7.17;;;6.30;;
11042;SDS011;5574;48.786;10.120;2022-12-07T00:04:18;6.13;;;5.53;;
11042;SDS011;5574;48.786;10.120;2022-12-07T00:06:45;6.47;;;5.77;;
11042;SDS011;5574;48.786;10.120;2022-12-07T00:09:13;6.13;;;5.53;;
11042;SDS011;5574;48.786;10.120;2022-12-07T00:11:41;6.30;;;5.70;;
11042;SDS011;5574;48.786;10.120;2022-12-07T00:14:10;6.00;;;5.47;;
11042;SDS011;5574;48.786;10.120;2022-12-07T00:16:38;6.00;;;5.40;;
11042;SDS011;5574;48.786;10.120;2022-12-07T00:19:05;6.90;;;5.50;;
11042;SDS011;5574;48.786;10.120;2022-12-07T00:21:34;8.67;;;5.87;;
11042;SDS011;5574;48.786;10.120;2022-12-07T00:24:02;6.10;;;5.60;;
11042;SDS011;5574;48.786;10.120;2022-12-07T00:26:31;5.90;;;5.40;;
11042;SDS011;5574;48.786;10.120;2022-12-07T00:28:59;7.13;;;6.43;;
11042;SDS011;5574;48.786;10.120;2022-12-07T00:31:28;5.60;;;5.10;;
11042;SDS011;5574;48.786;10.120;2022-12-07T00:33:58;5.50;;;5.00;;
11042;SDS011;5574;48.786;10.120;2022-12-07T00:36:25;5.60;;;5.10;;
11042;SDS011;5574;48.786;10.120;2022-12-07T00:38:53;4.47;;;4.17;;
11042;SDS011;5574;48.786;10.120;2022-12-07T00:41:21;6.20;;;5.60;;
11042;SDS011;5574;48.786;10.120;2022-12-07T00:43:49;5.87;;;5.37;;
11042;SDS011;5574;48.786;10.120;2022-12-07T00:46:16;5.60;;;5.10;;
11042;SDS011;5574;48.786;10.120;2022-12-07T00:48:44;6.17;;;5.57;;
11042;SDS011;5574;48.786;10.120;2022-12-07T00:51:12;5.80;;;5.30;;
11042;SDS011;5574;48.786;10.120;2022-12-07T00:53:40;5.77;;;5.27;;
11042;SDS011;5574;48.786;10.120;2022-12-07T00:56:09;6.60;;;6.00;;
11042;SDS011;5574;48.786;10.120;2022-12-07T00:58:38;5.60;;;5.10;;
11042;SDS011;5574;48.786;10.120;2022-12-07T01:01:05;5.57;;;5.07;;
11042;SDS011;5574;48.786;10.120;2022-12-07T01:03:33;6.23;;;5.63;;
11042;SDS011;5574;48.786;10.120;2022-12-07T01:06:00;6.00;;;5.40;;
11042;SDS011;5574;48.786;10.120;2022-12-07T01:08:27;5.77;;;5.27;;
11042;SDS011;5574;48.786;10.120;2022-12-07T01:10:58;6.77;;;6.13;;
11042;SDS011;5574;48.786;10.120;2022-12-07T01:13:27;6.07;;;5.47;;
11042;SDS011;5574;48.786;10.120;2022-12-07T01:15:56;5.87;;;5.30;;
11042;SDS011;5574;48.786;10.120;2022-12-07T01:18:24;5.93;;;5.33;;
11042;SDS011;5574;48.786;10.120;2022-12-07T01:20:58;5.30;;;4.90;;
11042;SDS011;5574;48.786;10.120;2022-12-07T01:23:26;5.80;;;5.30;;
11042;SDS011;5574;48.786;10.120;2022-12-07T01:25:56;6.83;;;6.17;;
11042;SDS011;5574;48.786;10.120;2022-12-07T01:28:23;6.30;;;5.70;;
11042;SDS011;5574;48.786;10.120;2022-12-07T01:30:58;6.83;;;5.97;;
11042;SDS011;5574;48.786;10.120;2022-12-07T01:33:27;7.07;;;6.37;;
11042;SDS011;5574;48.786;10.120;2022-12-07T01:35:59;6.33;;;5.70;;
11042;SDS011;5574;48.786;10.120;2022-12-07T01:38:27;6.50;;;5.90;;
11042;SDS011;5574;48.786;10.120;2022-12-07T01:40:54;6.93;;;6.33;;
11042;SDS011;5574;48.786;10.120;2022-12-07T01:43:22;7.43;;;6.73;;
11042;SDS011;5574;48.786;10.120;2022-12-07T01:45:51;7.17;;;6.47;;
11042;SDS011;5574;48.786;10.120;2022-12-07T01:48:20;7.83;;;6.33;;
11042;SDS011;5574;48.786;10.120;2022-12-07T01:50:51;7.00;;;6.30;;
11042;SDS011;5574;48.786;10.120;2022-12-07T01:53:20;7.07;;;6.37;;
11042;SDS011;5574;48.786;10.120;2022-12-07T01:55:50;7.63;;;6.80;;
11042;SDS011;5574;48.786;10.120;2022-12-07T01:58:19;6.90;;;6.27;;
11042;SDS011;5574;48.786;10.120;2022-12-07T02:00:47;7.23;;;6.57;;
11042;SDS011;5574;48.786;10.120;2022-12-07T02:03:15;6.23;;;5.63;;
11042;SDS011;5574;48.786;10.120;2022-12-07T02:05:47;6.83;;;6.17;;
11042;SDS011;5574;48.786;10.120;2022-12-07T02:08:15;6.47;;;5.87;;
11042;SDS011;5574;48.786;10.120;2022-12-07T02:10:43;6.63;;;6.03;;
11042;SDS011;5574;48.786;10.120;2022-12-07T02:13:11;6.63;;;6.03;;
11042;SDS011;5574;48.786;10.120;2022-12-07T02:15:44;6.40;;;5.70;;
11042;SDS011;5574;48.786;10.120;2022-12-07T02:18:28;6.27;;;5.67;;
11042;SDS011;5574;48.786;10.120;2022-12-07T02:21:05;5.80;;;5.20;;
11042;SDS011;5574;48.786;10.120;2022-12-07T02:23:41;5.70;;;5.20;;
11042;SDS011;5574;48.786;10.120;2022-12-07T02:26:43;6.37;;;5.77;;
11042;SDS011;5574;48.786;10.120;2022-12-07T02:29:35;7.93;;;5.87;;
11042;SDS011;5574;48.786;10.120;2022-12-07T02:32:10;7.97;;;5.80;;
11042;SDS011;5574;48.786;10.120;2022-12-07T02:34:43;6.93;;;6.33;;
11042;SDS011;5574;48.786;10.120;2022-12-07T02:37:17;6.70;;;5.77;;
11042;SDS011;5574;48.786;10.120;2022-12-07T02:39:53;6.33;;;5.73;;
11042;SDS011;5574;48.786;10.120;2022-12-07T02:42:27;6.80;;;6.10;;
11042;SDS011;5574;48.786;10.120;2022-12-07T02:44:59;5.67;;;5.17;;
11042;SDS011;5574;48.786;10.120;2022-12-07T02:47:27;6.80;;;6.00;;
11042;SDS011;5574;48.786;10.120;2022-12-07T02:49:55;6.50;;;5.50;;
11042;SDS011;5574;48.786;10.120;2022-12-07T02:52:22;6.30;;;5.70;;
11042;SDS011;5574;48.786;10.120;2022-12-07T02:54:49;6.57;;;5.90;;
11042;SDS011;5574;48.786;10.120;2022-12-07T02:57:22;6.63;;;5.93;;
11042;SDS011;5574;48.786;10.120;2022-12-07T03:00:03;7.37;;;6.70;;
11042;SDS011;5574;48.786;10.120;2022-12-07T03:02:35;6.47;;;5.87;;
11042;SDS011;5574;48.786;10.120;2022-12-07T03:05:13;7.87;;;6.70;;
11042;SDS011;5574;48.786;10.120;2022-12-07T03:07:51;7.20;;;6.33;;
11042;SDS011;5574;48.786;10.120;2022-12-07T03:10:27;7.30;;;6.60;;
11042;SDS011;5574;48.786;10.120;2022-12-07T03:13:07;7.33;;;6.63;;
11042;SDS011;5574;48.786;10.120;2022-12-07T03:15:41;7.53;;;6.53;;
11042;SDS011;5574;48.786;10.120;2022-12-07T03:18:13;7.00;;;6.30;;
11042;SDS011;5574;48.786;10.120;2022-12-07T03:20:45;7.30;;;6.60;;
11042;SDS011;5574;48.786;10.120;2022-12-07T03:23:14;7.60;;;6.80;;
11042;SDS011;5574;48.786;10.120;2022-12-07T03:25:44;6.10;;;5.50;;
11042;SDS011;5574;48.786;10.120;2022-12-07T03:28:13;7.10;;;6.10;;
11042;SDS011;5574;48.786;10.120;2022-12-07T03:30:46;6.60;;;5.90;;
11042;SDS011;5574;48.786;10.120;2022-12-07T03:33:17;6.70;;;6.10;;
11042;SDS011;5574;48.786;10.120;2022-12-07T03:35:48;6.40;;;5.80;;
11042;SDS011;5574;48.786;10.120;2022-12-07T03:38:19;8.17;;;6.43;;
11042;SDS011;5574;48.786;10.120;2022-12-07T03:40:50;7.30;;;6.60;;
11042;SDS011;5574;48.786;10.120;2022-12-07T03:43:22;8.00;;;7.20;;
11042;SDS011;5574;48.786;10.120;2022-12-07T03:45:51;11.03;;;7.13;;
11042;SDS011;5574;48.786;10.120;2022-12-07T03:48:28;8.03;;;6.90;;
11042;SDS011;5574;48.786;10.120;2022-12-07T03:51:02;7.50;;;6.70;;
11042;SDS011;5574;48.786;10.120;2022-12-07T03:53:39;6.70;;;6.00;;
11042;SDS011;5574;48.786;10.120;2022-12-07T03:56:10;5.90;;;5.40;;
11042;SDS011;5574;48.786;10.120;2022-12-07T03:58:38;6.43;;;5.77;;
11042;SDS011;5574;48.786;10.120;2022-12-07T04:01:08;7.20;;;5.80;;
11042;SDS011;5574;48.786;10.120;2022-12-07T04:03:35;6.07;;;5.43;;
11042;SDS011;5574;48.786;10.120;2022-12-07T04:06:01;5.97;;;5.37;;
11042;SDS011;5574;48.786;10.120;2022-12-07T04:08:28;6.23;;;5.67;;
11042;SDS011;5574;48.786;10.120;2022-12-07T04:10:55;5.67;;;5.13;;
11042;SDS011;5574;48.786;10.120;2022-12-07T04:13:22;6.53;;;5.77;;
11042;SDS011;5574;48.786;10.120;2022-12-07T04:15:48;6.47;;;5.87;;
11042;SDS011;5574;48.786;10.120;2022-12-07T04:18:17;6.87;;;6.07;;
11042;SDS011;5574;48.786;10.120;2022-12-07T04:20:43;6.40;;;5.80;;
11042;SDS011;5574;48.786;10.120;2022-12-07T04:23:11;6.70;;;6.10;;
11042;SDS011;5574;48.786;10.120;2022-12-07T04:25:38;6.60;;;5.77;;
11042;SDS011;5574;48.786;10.120;2022-12-07T04:28:04;6.07;;;5.47;;
11042;SDS011;5574;48.786;10.120;2022-12-07T04:30:31;6.20;;;5.60;;
11042;SDS011;5574;48.786;10.120;2022-12-07T04:32:58;8.17;;;5.40;;
11042;SDS011;5574;48.786;10.120;2022-12-07T04:35:26;5.60;;;4.57;;
11042;SDS011;5574;48.786;10.120;2022-12-07T04:37:53;4.93;;;4.33;;
11042;SDS011;5574;48.786;10.120;2022-12-07T04:40:19;5.10;;;4.60;;
11042;SDS011;5574;48.786;10.120;2022-12-07T04:42:46;5.23;;;4.80;;
11042;SDS011;5574;48.786;10.120;2022-12-07T04:45:13;5.30;;;4.80;;
11042;SDS011;5574;48.786;10.120;2022-12-07T04:47:40;5.70;;;4.97;;
11042;SDS011;5574;48.786;10.120;2022-12-07T04:50:07;5.47;;;4.97;;
11042;SDS011;5574;48.786;10.120;2022-12-07T04:52:37;5.10;;;4.53;;
11042;SDS011;5574;48.786;10.120;2022-12-07T04:55:04;5.50;;;5.00;;
11042;SDS011;5574;48.786;10.120;2022-12-07T04:57:30;4.53;;;4.13;;
11042;SDS011;5574;48.786;10.120;2022-12-07T04:59:57;5.83;;;4.57;;
11042;SDS011;5574;48.786;10.120;2022-12-07T05:02:24;6.17;;;4.87;;
11042;SDS011;5574;48.786;10.120;2022-12-07T05:04:51;5.57;;;5.07;;
11042;SDS011;5574;48.786;10.120;2022-12-07T05:07:18;5.77;;;5.17;;
11042;SDS011;5574;48.786;10.120;2022-12-07T05:09:46;6.27;;;5.67;;
11042;SDS011;5574;48.786;10.120;2022-12-07T05:12:12;5.40;;;4.90;;
11042;SDS011;5574;48.786;10.120;2022-12-07T05:14:39;5.83;;;5.27;;
11042;SDS011;5574;48.786;10.120;2022-12-07T05:17:06;6.10;;;4.83;;
11042;SDS011;5574;48.786;10.120;2022-12-07T05:19:33;5.87;;;5.27;;
11042;SDS011;5574;48.786;10.120;2022-12-07T05:21:59;6.67;;;6.07;;
11042;SDS011;5574;48.786;10.120;2022-12-07T05:24:26;6.30;;;5.70;;
11042;SDS011;5574;48.786;10.120;2022-12-07T05:26:54;6.90;;;5.53;;
11042;SDS011;5574;48.786;10.120;2022-12-07T05:29:21;6.13;;;5.37;;
11042;SDS011;5574;48.786;10.120;2022-12-07T05:31:48;6.10;;;5.50;;
11042;SDS011;5574;48.786;10.120;2022-12-07T05:34:14;6.10;;;5.50;;
11042;SDS011;5574;48.786;10.120;2022-12-07T05:36:41;5.80;;;5.20;;
11042;SDS011;5574;48.786;10.120;2022-12-07T05:39:08;6.10;;;5.50;;
11042;SDS011;5574;48.786;10.120;2022-12-07T05:41:34;5.90;;;5.10;;
11042;SDS011;5574;48.786;10.120;2022-12-07T05:44:20;5.40;;;4.90;;
11042;SDS011;5574;48.786;10.120;2022-12-07T05:46:47;6.07;;;4.70;;
11042;SDS011;5574;48.786;10.120;2022-12-07T05:49:14;6.60;;;5.30;;
11042;SDS011;5574;48.786;10.120;2022-12-07T05:51:41;7.87;;;5.60;;
11042;SDS011;5574;48.786;10.120;2022-12-07T05:54:08;6.30;;;5.70;;
11042;SDS011;5574;48.786;10.120;2022-12-07T05:56:34;5.93;;;4.97;;
11042;SDS011;5574;48.786;10.120;2022-12-07T05:59:01;7.23;;;5.70;;
11042;SDS011;5574;48.786;10.120;2022-12-07T06:01:46;7.70;;;5.10;;
11042;SDS011;5574;48.786;10.120;2022-12-07T06:04:13;5.57;;;4.53;;
11042;SDS011;5574;48.786;10.120;2022-12-07T06:06:40;5.97;;;5.07;;
11042;SDS011;5574;48.786;10.120;2022-12-07T06:09:07;5.27;;;4.77;;
11042;SDS011;5574;48.786;10.120;2022-12-07T06:11:34;4.83;;;4.30;;
11042;SDS011;5574;48.786;10.120;2022-12-07T06:14:18;5.77;;;5.13;;
11042;SDS011;5574;48.786;10.120;2022-12-07T06:16:46;5.70;;;5.10;;
11042;SDS011;5574;48.786;10.120;2022-12-07T06:19:13;5.40;;;4.80;;
11042;SDS011;5574;48.786;10.120;2022-12-07T06:21:40;6.93;;;5.27;;
11042;SDS011;5574;48.786;10.120;2022-12-07T06:24:07;7.40;;;5.80;;
11042;SDS011;5574;48.786;10.120;2022-12-07T06:26:35;8.90;;;5.37;;
11042;SDS011;5574;48.786;10.120;2022-12-07T06:29:01;9.10;;;5.87;;
11042;SDS011;5574;48.786;10.120;2022-12-07T06:31:28;7.10;;;6.17;;
11042;SDS011;5574;48.786;10.120;2022-12-07T06:33:58;7.23;;;5.77;;
11042;SDS011;5574;48.786;10.120;2022-12-07T06:36:25;5.87;;;5.33;;
11042;SDS011;5574;48.786;10.120;2022-12-07T06:38:52;6.77;;;6.07;;
11042;SDS011;5574;48.786;10.120;2022-12-07T06:41:19;5.90;;;5.40;;
11042;SDS011;5574;48.786;10.120;2022-12-07T06:43:46;7.93;;;6.10;;
11042;SDS011;5574;48.786;10.120;2022-12-07T06:46:13;7.10;;;6.27;;
11042;SDS011;5574;48.786;10.120;2022-12-07T06:48:41;8.83;;;7.07;;
11042;SDS011;5574;48.786;10.120;2022-12-07T06:51:09;6.53;;;5.83;;
11042;SDS011;5574;48.786;10.120;2022-12-07T06:53:36;6.13;;;5.50;;
11042;SDS011;5574;48.786;10.120;2022-12-07T06:56:03;7.13;;;6.43;;
11042;SDS011;5574;48.786;10.120;2022-12-07T06:58:31;7.20;;;6.50;;
11042;SDS011;5574;48.786;10.120;2022-12-07T07:00:57;9.60;;;8.00;;
11042;SDS011;5574;48.786;10.120;2022-12-07T07:03:24;10.17;;;8.23;;
11042;SDS011;5574;48.786;10.120;2022-12-07T07:05:51;9.83;;;8.10;;
11042;SDS011;5574;48.786;10.120;2022-12-07T07:08:19;9.40;;;7.63;;
11042;SDS011;5574;48.786;10.120;2022-12-07T07:10:46;10.87;;;8.63;;
11042;SDS011;5574;48.786;10.120;2022-12-07T07:13:12;8.37;;;7.53;;
11042;SDS011;5574;48.786;10.120;2022-12-07T07:15:39;12.00;;;7.80;;
11042;SDS011;5574;48.786;10.120;2022-12-07T07:18:06;8.83;;;7.77;;
11042;SDS011;5574;48.786;10.120;2022-12-07T07:20:32;12.20;;;10.23;;
11042;SDS011;5574;48.786;10.120;2022-12-07T07:22:59;10.37;;;8.60;;
11042;SDS011;5574;48.786;10.120;2022-12-07T07:25:27;16.77;;;12.30;;
11042;SDS011;5574;48.786;10.120;2022-12-07T07:27:54;11.83;;;10.03;;
11042;SDS011;5574;48.786;10.120;2022-12-07T07:30:21;9.10;;;8.07;;
11042;SDS011;5574;48.786;10.120;2022-12-07T07:32:48;8.50;;;7.60;;
11042;SDS011;5574;48.786;10.120;2022-12-07T07:35:15;8.30;;;7.47;;
11042;SDS011;5574;48.786;10.120;2022-12-07T07:37:52;9.30;;;8.20;;
11042;SDS011;5574;48.786;10.120;2022-12-07T07:40:19;9.80;;;8.50;;
11042;SDS011;5574;48.786;10.120;2022-12-07T07:42:48;9.37;;;8.37;;
11042;SDS011;5574;48.786;10.120;2022-12-07T07:45:15;8.87;;;7.97;;
11042;SDS011;5574;48.786;10.120;2022-12-07T07:47:42;9.23;;;8.07;;
11042;SDS011;5574;48.786;10.120;2022-12-07T07:50:09;8.00;;;7.17;;
11042;SDS011;5574;48.786;10.120;2022-12-07T07:52:37;8.03;;;7.20;;
11042;SDS011;5574;48.786;10.120;2022-12-07T07:55:06;8.57;;;7.23;;
11042;SDS011;5574;48.786;10.120;2022-12-07T07:57:34;6.83;;;5.97;;
11042;SDS011;5574;48.786;10.120;2022-12-07T08:00:03;7.30;;;5.70;;
11042;SDS011;5574;48.786;10.120;2022-12-07T08:02:30;6.60;;;5.60;;
11042;SDS011;5574;48.786;10.120;2022-12-07T08:04:57;6.23;;;5.63;;
11042;SDS011;5574;48.786;10.120;2022-12-07T08:07:24;6.03;;;4.97;;
11042;SDS011;5574;48.786;10.120;2022-12-07T08:09:51;5.30;;;4.80;;
11042;SDS011;5574;48.786;10.120;2022-12-07T08:12:17;5.90;;;5.00;;
11042;SDS011;5574;48.786;10.120;2022-12-07T08:14:44;5.67;;;5.10;;
11042;SDS011;5574;48.786;10.120;2022-12-07T08:17:13;5.60;;;5.00;;
11042;SDS011;5574;48.786;10.120;2022-12-07T08:19:39;5.60;;;4.50;;
11042;SDS011;5574;48.786;10.120;2022-12-07T08:22:06;4.83;;;4.20;;
11042;SDS011;5574;48.786;10.120;2022-12-07T08:24:33;6.20;;;4.60;;
11042;SDS011;5574;48.786;10.120;2022-12-07T08:27:00;6.47;;;4.67;;
11042;SDS011;5574;48.786;10.120;2022-12-07T08:29:27;4.50;;;4.03;;
11042;SDS011;5574;48.786;10.120;2022-12-07T08:31:54;4.87;;;4.10;;
11042;SDS011;5574;48.786;10.120;2022-12-07T08:34:22;6.90;;;4.27;;
11042;SDS011;5574;48.786;10.120;2022-12-07T08:36:48;4.67;;;4.23;;
11042;SDS011;5574;48.786;10.120;2022-12-07T08:39:15;5.47;;;4.60;;
11042;SDS011;5574;48.786;10.120;2022-12-07T08:41:42;6.13;;;4.70;;
11042;SDS011;5574;48.786;10.120;2022-12-07T08:44:08;5.33;;;4.83;;
11042;SDS011;5574;48.786;10.120;2022-12-07T08:46:36;5.03;;;4.40;;
11042;SDS011;5574;48.786;10.120;2022-12-07T08:49:09;5.93;;;3.77;;
11042;SDS011;5574;48.786;10.120;2022-12-07T08:51:39;4.10;;;3.70;;
11042;SDS011;5574;48.786;10.120;2022-12-07T08:54:07;4.23;;;3.83;;
11042;SDS011;5574;48.786;10.120;2022-12-07T08:56:37;5.53;;;4.13;;
11042;SDS011;5574;48.786;10.120;2022-12-07T08:59:04;5.30;;;3.70;;
11042;SDS011;5574;48.786;10.120;2022-12-07T09:01:32;6.20;;;3.60;;
11042;SDS011;5574;48.786;10.120;2022-12-07T09:03:59;5.67;;;3.43;;
11042;SDS011;5574;48.786;10.120;2022-12-07T09:06:25;3.70;;;3.10;;
11042;SDS011;5574;48.786;10.120;2022-12-07T09:08:55;3.50;;;3.07;;
11042;SDS011;5574;48.786;10.120;2022-12-07T09:11:24;4.90;;;3.50;;
11042;SDS011;5574;48.786;10.120;2022-12-07T09:13:50;3.77;;;3.13;;
11042;SDS011;5574;48.786;10.120;2022-12-07T09:16:17;3.53;;;3.00;;
11042;SDS011;5574;48.786;10.120;2022-12-07T09:18:44;3.57;;;2.70;;
11042;SDS011;5574;48.786;10.120;2022-12-07T09:21:11;2.60;;;2.40;;
11042;SDS011;5574;48.786;10.120;2022-12-07T09:23:37;2.50;;;2.30;;
11042;SDS011;5574;48.786;10.120;2022-12-07T09:26:05;5.77;;;3.70;;
11042;SDS011;5574;48.786;10.120;2022-12-07T09:28:32;3.87;;;3.27;;
11042;SDS011;5574;48.786;10.120;2022-12-07T09:30:59;2.73;;;2.53;;
11042;SDS011;5574;48.786;10.120;2022-12-07T09:33:26;4.03;;;2.60;;
11042;SDS011;5574;48.786;10.120;2022-12-07T09:35:53;3.57;;;2.73;;
11042;SDS011;5574;48.786;10.120;2022-12-07T09:38:20;3.17;;;2.97;;
11042;SDS011;5574;48.786;10.120;2022-12-07T09:40:47;13.20;;;3.60;;
11042;SDS011;5574;48.786;10.120;2022-12-07T09:43:16;4.87;;;3.50;;
11042;SDS011;5574;48.786;10.120;2022-12-07T09:45:46;3.67;;;3.07;;
11042;SDS011;5574;48.786;10.120;2022-12-07T09:48:16;2.67;;;2.47;;
11042;SDS011;5574;48.786;10.120;2022-12-07T09:50:45;3.60;;;3.30;;
11042;SDS011;5574;48.786;10.120;2022-12-07T09:53:14;4.20;;;3.07;;
11042;SDS011;5574;48.786;10.120;2022-12-07T09:55:46;4.30;;;2.93;;
11042;SDS011;5574;48.786;10.120;2022-12-07T09:58:16;5.43;;;3.03;;
11042;SDS011;5574;48.786;10.120;2022-12-07T10:00:46;4.50;;;3.40;;
11042;SDS011;5574;48.786;10.120;2022-12-07T10:03:14;5.03;;;3.60;;
11042;SDS011;5574;48.786;10.120;2022-12-07T10:05:42;3.70;;;3.23;;
11042;SDS011;5574;48.786;10.120;2022-12-07T10:08:11;3.80;;;3.40;;
11042;SDS011;5574;48.786;10.120;2022-12-07T10:10:39;4.00;;;3.20;;
11042;SDS011;5574;48.786;10.120;2022-12-07T10:13:06;3.50;;;3.20;;
11042;SDS011;5574;48.786;10.120;2022-12-07T10:15:44;4.00;;;3.60;;
11042;SDS011;5574;48.786;10.120;2022-12-07T10:18:18;3.47;;;3.17;;
11042;SDS011;5574;48.786;10.120;2022-12-07T10:20:47;6.20;;;3.57;;
11042;SDS011;5574;48.786;10.120;2022-12-07T10:23:15;9.63;;;3.50;;
11042;SDS011;5574;48.786;10.120;2022-12-07T10:25:43;4.27;;;3.10;;
11042;SDS011;5574;48.786;10.120;2022-12-07T10:28:14;5.03;;;3.20;;
11042;SDS011;5574;48.786;10.120;2022-12-07T10:30:54;3.57;;;3.10;;
11042;SDS011;5574;48.786;10.120;2022-12-07T10:33:27;2.90;;;2.70;;
11042;SDS011;5574;48.786;10.120;2022-12-07T10:35:59;3.70;;;2.77;;
11042;SDS011;5574;48.786;10.120;2022-12-07T10:38:27;4.97;;;2.97;;
11042;SDS011;5574;48.786;10.120;2022-12-07T10:41:04;3.63;;;3.03;;
11042;SDS011;5574;48.786;10.120;2022-12-07T10:43:31;3.07;;;2.70;;
11042;SDS011;5574;48.786;10.120;2022-12-07T10:46:08;2.40;;;2.20;;
11042;SDS011;5574;48.786;10.120;2022-12-07T10:48:47;3.57;;;3.23;;
11042;SDS011;5574;48.786;10.120;2022-12-07T10:51:26;4.63;;;3.07;;
11042;SDS011;5574;48.786;10.120;2022-12-07T10:54:01;3.70;;;2.83;;
11042;SDS011;5574;48.786;10.120;2022-12-07T10:56:45;7.20;;;3.47;;
11042;SDS011;5574;48.786;10.120;2022-12-07T11:02:42;4.90;;;3.37;;
11042;SDS011;5574;48.786;10.120;2022-12-07T11:05:29;3.77;;;3.23;;
11042;SDS011;5574;48.786;10.120;2022-12-07T11:08:04;3.40;;;3.17;;
11042;SDS011;5574;48.786;10.120;2022-12-07T11:10:42;5.57;;;3.60;;
11042;SDS011;5574;48.786;10.120;2022-12-07T11:13:22;5.27;;;3.30;;
11042;SDS011;5574;48.786;10.120;2022-12-07T11:15:55;4.10;;;3.07;;
11042;SDS011;5574;48.786;10.120;2022-12-07T11:18:36;4.43;;;3.27;;
11042;SDS011;5574;48.786;10.120;2022-12-07T11:21:13;3.10;;;2.90;;
11042;SDS011;5574;48.786;10.120;2022-12-07T11:23:48;4.77;;;3.00;;
11042;SDS011;5574;48.786;10.120;2022-12-07T11:26:22;3.53;;;3.03;;
11042;SDS011;5574;48.786;10.120;2022-12-07T11:29:09;3.83;;;3.47;;
11042;SDS011;5574;48.786;10.120;2022-12-07T11:31:50;3.63;;;3.17;;
11042;SDS011;5574;48.786;10.120;2022-12-07T11:34:26;11.77;;;4.13;;
11042;SDS011;5574;48.786;10.120;2022-12-07T11:37:02;4.03;;;3.13;;
11042;SDS011;5574;48.786;10.120;2022-12-07T11:39:34;4.20;;;3.63;;
11042;SDS011;5574;48.786;10.120;2022-12-07T11:42:05;3.90;;;3.50;;
11042;SDS011;5574;48.786;10.120;2022-12-07T11:44:36;5.77;;;3.97;;
11042;SDS011;5574;48.786;10.120;2022-12-07T11:47:10;5.10;;;4.00;;
11042;SDS011;5574;48.786;10.120;2022-12-07T11:49:45;5.13;;;3.80;;
11042;SDS011;5574;48.786;10.120;2022-12-07T11:52:20;12.33;;;4.20;;
11042;SDS011;5574;48.786;10.120;2022-12-07T11:54:51;4.17;;;3.73;;
11042;SDS011;5574;48.786;10.120;2022-12-07T11:57:20;4.60;;;3.63;;
11042;SDS011;5574;48.786;10.120;2022-12-07T11:59:52;4.40;;;4.00;;
11042;SDS011;5574;48.786;10.120;2022-12-07T12:02:26;4.57;;;3.87;;
11042;SDS011;5574;48.786;10.120;2022-12-07T12:05:01;5.00;;;3.80;;
11042;SDS011;5574;48.786;10.120;2022-12-07T12:07:33;10.20;;;4.47;;
11042;SDS011;5574;48.786;10.120;2022-12-07T12:10:03;5.30;;;3.10;;
11042;SDS011;5574;48.786;10.120;2022-12-07T12:12:50;5.27;;;4.17;;
11042;SDS011;5574;48.786;10.120;2022-12-07T12:15:39;4.30;;;3.90;;
11042;SDS011;5574;48.786;10.120;2022-12-07T12:21:20;4.17;;;3.77;;
11042;SDS011;5574;48.786;10.120;2022-12-07T12:23:54;4.53;;;3.73;;
11042;SDS011;5574;48.786;10.120;2022-12-07T12:26:24;4.97;;;3.77;;
11042;SDS011;5574;48.786;10.120;2022-12-07T12:28:54;4.20;;;3.80;;
11042;SDS011;5574;48.786;10.120;2022-12-07T12:31:32;4.07;;;3.53;;
11042;SDS011;5574;48.786;10.120;2022-12-07T12:34:02;5.63;;;4.20;;
11042;SDS011;5574;48.786;10.120;2022-12-07T12:36:44;7.63;;;3.87;;
11042;SDS011;5574;48.786;10.120;2022-12-07T12:39:13;4.40;;;4.00;;
11042;SDS011;5574;48.786;10.120;2022-12-07T12:41:54;4.77;;;3.90;;
11042;SDS011;5574;48.786;10.120;2022-12-07T12:47:39;5.00;;;4.50;;
11042;SDS011;5574;48.786;10.120;2022-12-07T12:50:15;4.30;;;3.90;;
11042;SDS011;5574;48.786;10.120;2022-12-07T12:52:50;5.07;;;4.30;;
11042;SDS011;5574;48.786;10.120;2022-12-07T12:55:27;4.13;;;3.60;;
11042;SDS011;5574;48.786;10.120;2022-12-07T12:58:28;5.43;;;4.87;;
11042;SDS011;5574;48.786;10.120;2022-12-07T13:04:14;5.73;;;4.30;;
11042;SDS011;5574;48.786;10.120;2022-12-07T13:07:02;3.90;;;3.60;;
11042;SDS011;5574;48.786;10.120;2022-12-07T13:09:30;3.97;;;3.63;;
11042;SDS011;5574;48.786;10.120;2022-12-07T13:12:01;4.10;;;3.50;;
11042;SDS011;5574;48.786;10.120;2022-12-07T13:20:40;5.40;;;4.17;;
11042;SDS011;5574;48.786;10.120;2022-12-07T13:23:14;4.23;;;3.70;;
11042;SDS011;5574;48.786;10.120;2022-12-07T13:25:48;7.90;;;4.37;;
11042;SDS011;5574;48.786;10.120;2022-12-07T13:28:26;5.57;;;3.83;;
11042;SDS011;5574;48.786;10.120;2022-12-07T13:31:12;5.67;;;4.20;;
11042;SDS011;5574;48.786;10.120;2022-12-07T13:33:43;5.40;;;3.93;;
11042;SDS011;5574;48.786;10.120;2022-12-07T13:36:12;4.40;;;4.00;;
11042;SDS011;5574;48.786;10.120;2022-12-07T13:38:48;4.27;;;3.80;;
11042;SDS011;5574;48.786;10.120;2022-12-07T13:41:19;7.17;;;4.00;;
11042;SDS011;5574;48.786;10.120;2022-12-07T13:43:48;4.80;;;4.30;;
11042;SDS011;5574;48.786;10.120;2022-12-07T13:46:17;5.33;;;3.90;;
11042;SDS011;5574;48.786;10.120;2022-12-07T13:48:49;6.23;;;4.40;;
11042;SDS011;5574;48.786;10.120;2022-12-07T13:51:17;6.03;;;4.47;;
11042;SDS011;5574;48.786;10.120;2022-12-07T13:53:47;6.80;;;4.60;;
11042;SDS011;5574;48.786;10.120;2022-12-07T13:56:14;5.97;;;4.90;;
11042;SDS011;5574;48.786;10.120;2022-12-07T13:58:42;6.03;;;4.67;;
11042;SDS011;5574;48.786;10.120;2022-12-07T14:01:09;7.07;;;4.73;;
11042;SDS011;5574;48.786;10.120;2022-12-07T14:03:38;5.83;;;4.90;;
11042;SDS011;5574;48.786;10.120;2022-12-07T14:09:06;8.13;;;6.07;;
11042;SDS011;5574;48.786;10.120;2022-12-07T14:11:44;5.30;;;4.80;;
11042;SDS011;5574;48.786;10.120;2022-12-07T14:14:13;5.07;;;4.53;;
11042;SDS011;5574;48.786;10.120;2022-12-07T14:16:43;5.10;;;4.60;;
11042;SDS011;5574;48.786;10.120;2022-12-07T14:22:18;11.57;;;4.37;;
11042;SDS011;5574;48.786;10.120;2022-12-07T14:24:47;5.07;;;4.23;;
11042;SDS011;5574;48.786;10.120;2022-12-07T14:27:18;5.33;;;4.77;;
11042;SDS011;5574;48.786;10.120;2022-12-07T14:29:47;4.83;;;4.37;;
11042;SDS011;5574;48.786;10.120;2022-12-07T14:32:19;6.33;;;4.70;;
11042;SDS011;5574;48.786;10.120;2022-12-07T14:34:53;4.73;;;4.20;;
11042;SDS011;5574;48.786;10.120;2022-12-07T14:37:24;7.27;;;4.77;;
11042;SDS011;5574;48.786;10.120;2022-12-07T14:39:52;8.47;;;4.73;;
11042;SDS011;5574;48.786;10.120;2022-12-07T14:42:18;6.13;;;4.27;;
11042;SDS011;5574;48.786;10.120;2022-12-07T14:44:47;7.23;;;4.70;;
11042;SDS011;5574;48.786;10.120;2022-12-07T14:49:49;6.13;;;5.10;;
11042;SDS011;5574;48.786;10.120;2022-12-07T14:52:17;6.70;;;5.30;;
11042;SDS011;5574;48.786;10.120;2022-12-07T14:54:48;7.07;;;5.27;;
11042;SDS011;5574;48.786;10.120;2022-12-07T14:57:14;6.40;;;4.57;;
11042;SDS011;5574;48.786;10.120;2022-12-07T14:59:43;8.47;;;6.93;;
11042;SDS011;5574;48.786;10.120;2022-12-07T15:02:14;7.43;;;5.20;;
11042;SDS011;5574;48.786;10.120;2022-12-07T15:04:41;6.23;;;4.57;;
11042;SDS011;5574;48.786;10.120;2022-12-07T15:07:10;4.63;;;4.20;;
11042;SDS011;5574;48.786;10.120;2022-12-07T15:09:42;8.53;;;4.67;;
11042;SDS011;5574;48.786;10.120;2022-12-07T15:12:09;6.73;;;5.27;;
11042;SDS011;5574;48.786;10.120;2022-12-07T15:14:36;5.20;;;4.33;;
11042;SDS011;5574;48.786;10.120;2022-12-07T15:17:02;6.37;;;4.77;;
11042;SDS011;5574;48.786;10.120;2022-12-07T15:19:31;5.67;;;4.70;;
11042;SDS011;5574;48.786;10.120;2022-12-07T15:21:58;6.20;;;4.67;;
11042;SDS011;5574;48.786;10.120;2022-12-07T15:24:25;7.40;;;4.80;;
11042;SDS011;5574;48.786;10.120;2022-12-07T15:26:52;7.10;;;5.40;;
11042;SDS011;5574;48.786;10.120;2022-12-07T15:29:19;5.63;;;5.03;;
11042;SDS011;5574;48.786;10.120;2022-12-07T15:31:45;6.43;;;4.93;;
11042;SDS011;5574;48.786;10.120;2022-12-07T15:34:14;5.83;;;5.20;;